Time;durP1;ratioP1;P1;durP2;ratioP2;P2;SDS_P1;SDS_P2;PMS_P1;PMS_P2;Temp;Humidity;BMP_temperature;BMP_pressure;BME280_temperature;BME280_humidity;BME280_pressure;Samples;Min_cycle;Max_cycle;Signal;HPM_P1;HPM_P2
2022/06/29 00:00:13;;;;;;;1.30;0.00;;;16.90;99.90;;;;;;5053101;28;20454;-71
2022/06/29 00:02:39;;;;;;;1.10;0.00;;;16.90;99.90;;;;;;5054218;28;20028;-72
2022/06/29 00:05:06;;;;;;;1.38;0.00;;;16.80;99.90;;;;;;5052766;28;20033;-72
2022/06/29 00:07:32;;;;;;;2.70;0.55;;;16.80;99.90;;;;;;5053505;28;20029;-72
2022/06/29 00:09:58;;;;;;;3.42;0.17;;;16.80;99.90;;;;;;5053879;28;20028;-72
2022/06/29 00:12:24;;;;;;;0.57;0.08;;;16.80;99.90;;;;;;5054541;28;20063;-71
2022/06/29 00:14:49;;;;;;;0.55;0.10;;;16.70;99.90;;;;;;5053833;28;20552;-71
2022/06/29 00:17:15;;;;;;;0.63;0.22;;;16.70;99.90;;;;;;5052497;28;20025;-71
2022/06/29 00:19:41;;;;;;;1.20;0.00;;;16.60;99.90;;;;;;5053993;28;20475;-71
2022/06/29 00:22:08;;;;;;;3.95;0.40;;;16.60;99.90;;;;;;5053786;28;20027;-71
2022/06/29 00:24:34;;;;;;;1.17;0.00;;;16.50;99.90;;;;;;5051355;28;20150;-72
2022/06/29 00:27:00;;;;;;;2.00;0.10;;;16.50;99.90;;;;;;5016013;28;20034;-73
2022/06/29 00:29:27;;;;;;;0.65;0.20;;;16.50;99.90;;;;;;5033739;28;20049;-73
2022/06/29 00:31:52;;;;;;;0.22;0.00;;;16.50;99.90;;;;;;5016097;28;20024;-72
2022/06/29 00:34:18;;;;;;;1.95;0.00;;;16.50;99.90;;;;;;5033605;28;20116;-72
2022/06/29 00:36:44;;;;;;;0.63;0.10;;;16.50;99.90;;;;;;5033660;28;20032;-72
2022/06/29 00:39:10;;;;;;;7.47;0.13;;;16.50;99.90;;;;;;5033506;28;20486;-73
2022/06/29 00:41:44;;;;;;;3.42;0.30;;;16.40;99.90;;;;;;5032229;28;20022;-72
2022/06/29 00:44:14;;;;;;;1.95;0.00;;;16.40;99.90;;;;;;5015846;28;20029;-72
2022/06/29 00:46:47;;;;;;;1.45;0.25;;;16.40;99.90;;;;;;5033512;28;20087;-72
2022/06/29 00:49:15;;;;;;;4.90;0.50;;;16.30;99.90;;;;;;5033737;28;20029;-72
2022/06/29 00:51:47;;;;;;;0.38;0.00;;;16.30;99.90;;;;;;5033548;28;20440;-72
2022/06/29 00:54:19;;;;;;;0.68;0.20;;;16.30;99.90;;;;;;5033546;28;20478;-72
2022/06/29 00:56:45;;;;;;;1.17;0.20;;;16.20;99.90;;;;;;5033425;28;20052;-72
2022/06/29 00:59:23;;;;;;;1.85;0.20;;;16.20;99.90;;;;;;5033379;28;20029;-72
2022/06/29 01:01:49;;;;;;;1.98;0.10;;;16.20;99.90;;;;;;5033703;28;20091;-72
2022/06/29 01:04:14;;;;;;;0.68;0.00;;;16.20;99.90;;;;;;5033818;28;20029;-72
2022/06/29 01:06:41;;;;;;;2.22;0.20;;;16.20;99.90;;;;;;5033311;28;20056;-72
2022/06/29 01:09:06;;;;;;;1.80;0.10;;;16.10;99.90;;;;;;5015540;28;20013;-72
2022/06/29 01:11:33;;;;;;;1.50;0.30;;;16.10;99.90;;;;;;5033772;28;20021;-72
2022/06/29 01:13:59;;;;;;;1.38;0.00;;;16.10;99.90;;;;;;5015680;28;20025;-72
2022/06/29 01:16:25;;;;;;;2.10;0.10;;;16.10;99.90;;;;;;5033303;28;20359;-72
2022/06/29 01:18:50;;;;;;;1.30;0.10;;;16.00;99.90;;;;;;5035040;28;20092;-72
2022/06/29 01:21:19;;;;;;;1.75;0.10;;;16.00;99.90;;;;;;5037573;28;20076;-72
2022/06/29 01:23:45;;;;;;;0.32;0.00;;;16.00;99.90;;;;;;5037648;28;20104;-72
2022/06/29 01:26:11;;;;;;;0.60;0.10;;;16.00;99.90;;;;;;5037577;28;20121;-72
2022/06/29 01:28:46;;;;;;;0.45;0.00;;;16.00;99.90;;;;;;5037479;28;20093;-72
2022/06/29 01:31:17;;;;;;;2.30;0.00;;;16.00;99.90;;;;;;5019896;28;20018;-73
2022/06/29 01:33:45;;;;;;;0.93;0.08;;;16.00;99.90;;;;;;5037016;28;20068;-73
2022/06/29 01:36:12;;;;;;;2.53;0.00;;;15.90;99.90;;;;;;5037009;28;20096;-73
2022/06/29 01:38:38;;;;;;;1.75;0.20;;;15.90;99.90;;;;;;5037095;28;20025;-73
2022/06/29 01:41:08;;;;;;;0.40;0.00;;;15.90;99.90;;;;;;5035684;28;20033;-72
2022/06/29 01:43:40;;;;;;;3.20;0.10;;;15.80;99.90;;;;;;5019153;28;20026;-72
2022/06/29 01:46:07;;;;;;;0.82;0.00;;;15.80;99.90;;;;;;5037080;28;20116;-71
2022/06/29 01:48:33;;;;;;;1.08;0.00;;;15.80;99.90;;;;;;5036684;28;20037;-72
2022/06/29 01:50:59;;;;;;;0.57;0.00;;;15.80;99.90;;;;;;5036632;28;20108;-71
2022/06/29 01:53:25;;;;;;;2.10;0.28;;;15.70;99.90;;;;;;5036902;28;20066;-71
2022/06/29 01:55:51;;;;;;;2.70;0.10;;;15.70;99.90;;;;;;5036567;28;20475;-71
2022/06/29 01:58:17;;;;;;;3.20;0.10;;;15.70;99.90;;;;;;5036398;28;20025;-72
2022/06/29 02:00:43;;;;;;;0.70;0.00;;;15.70;99.90;;;;;;5037038;28;20470;-73
2022/06/29 02:03:09;;;;;;;2.85;0.20;;;15.60;99.90;;;;;;5018768;28;20120;-73
2022/06/29 02:05:35;;;;;;;2.95;0.10;;;15.60;99.90;;;;;;5035249;28;20067;-73
2022/06/29 02:08:00;;;;;;;2.38;0.00;;;15.60;99.90;;;;;;5018615;28;20029;-73
2022/06/29 02:10:26;;;;;;;2.05;0.20;;;15.60;99.90;;;;;;5036616;28;20356;-73
2022/06/29 02:12:51;;;;;;;1.15;0.10;;;15.50;99.90;;;;;;5036387;28;20029;-72
2022/06/29 02:15:17;;;;;;;1.40;0.10;;;15.50;99.90;;;;;;5036470;28;20053;-72
2022/06/29 02:17:44;;;;;;;1.38;0.00;;;15.50;99.90;;;;;;5036751;28;20486;-72
2022/06/29 02:20:11;;;;;;;1.33;0.30;;;15.40;99.90;;;;;;5036321;28;20104;-72
2022/06/29 02:22:37;;;;;;;0.43;0.10;;;15.40;99.90;;;;;;5034890;28;20021;-72
2022/06/29 02:25:03;;;;;;;2.45;0.15;;;15.30;99.90;;;;;;5038008;28;20068;-78
2022/06/29 02:27:29;;;;;;;0.90;0.10;;;15.30;99.90;;;;;;5038019;28;20363;-77
2022/06/29 02:29:54;;;;;;;2.60;0.20;;;15.30;99.90;;;;;;5036083;28;20028;-77
2022/06/29 02:35:04;;;;;;;3.08;0.73;;;15.20;99.90;;;;;;5036835;28;20403;-77
2022/06/29 02:37:30;;;;;;;3.75;0.32;;;15.20;99.90;;;;;;5035697;28;20034;-77
2022/06/29 02:39:55;;;;;;;0.98;0.20;;;15.10;99.90;;;;;;5036022;28;20021;-77
2022/06/29 02:42:21;;;;;;;2.35;0.40;;;15.10;99.90;;;;;;5035989;28;20466;-77
2022/06/29 02:44:47;;;;;;;1.35;0.08;;;15.10;99.90;;;;;;5034590;28;20479;-77
2022/06/29 02:47:13;;;;;;;2.70;0.10;;;15.00;99.90;;;;;;5035810;28;20569;-77
2022/06/29 02:49:38;;;;;;;3.20;0.13;;;15.10;99.90;;;;;;5036069;28;20049;-77
2022/06/29 02:52:04;;;;;;;3.20;0.10;;;15.00;99.90;;;;;;5035540;28;20068;-77
2022/06/29 02:54:29;;;;;;;2.47;0.22;;;14.90;99.90;;;;;;5035650;28;20041;-77
2022/06/29 02:56:55;;;;;;;1.52;0.22;;;14.90;99.90;;;;;;5035451;28;20022;-77
2022/06/29 02:59:22;;;;;;;0.85;0.10;;;14.80;99.90;;;;;;5036197;28;20108;-77
2022/06/29 03:01:47;;;;;;;1.98;0.08;;;14.80;99.90;;;;;;5018260;28;20124;-78
2022/06/29 03:04:13;;;;;;;5.68;0.10;;;14.80;99.90;;;;;;5035556;28;20431;-78
2022/06/29 03:06:38;;;;;;;1.75;0.00;;;14.70;99.90;;;;;;5035489;28;20029;-77
2022/06/29 03:09:04;;;;;;;0.20;0.03;;;14.70;99.90;;;;;;5035404;28;20029;-77
2022/06/29 03:11:31;;;;;;;0.68;0.10;;;14.60;99.90;;;;;;5035860;28;20405;-77
2022/06/29 03:13:56;;;;;;;1.77;0.10;;;14.60;99.90;;;;;;5035311;28;20363;-77
2022/06/29 03:16:22;;;;;;;3.17;0.15;;;14.50;99.90;;;;;;5017457;28;20021;-77
2022/06/29 03:18:49;;;;;;;1.75;0.13;;;14.50;99.90;;;;;;5035089;28;20029;-77
2022/06/29 03:21:15;;;;;;;0.40;0.10;;;14.50;99.90;;;;;;5035155;28;20100;-77
2022/06/29 03:23:41;;;;;;;1.75;0.17;;;14.50;99.90;;;;;;5035154;28;20036;-77
2022/06/29 03:26:07;;;;;;;0.40;0.22;;;14.40;99.90;;;;;;5060594;28;20035;-77
2022/06/29 03:28:33;;;;;;;0.68;0.13;;;14.40;99.90;;;;;;5054838;28;20029;-77
2022/06/29 03:30:58;;;;;;;1.45;0.17;;;14.50;99.90;;;;;;5054772;28;20048;-77
2022/06/29 03:33:24;;;;;;;1.65;0.25;;;14.50;99.90;;;;;;5054850;28;20032;-77
2022/06/29 03:35:50;;;;;;;1.48;0.40;;;14.40;99.90;;;;;;5054790;28;20098;-77
2022/06/29 03:38:15;;;;;;;0.40;0.10;;;14.40;99.90;;;;;;5054651;28;20052;-77
2022/06/29 03:40:41;;;;;;;2.65;0.40;;;14.40;99.90;;;;;;5054111;28;20033;-77
2022/06/29 03:43:07;;;;;;;0.30;0.10;;;14.40;99.90;;;;;;5054519;28;20035;-77
2022/06/29 03:45:32;;;;;;;3.42;0.35;;;14.40;99.90;;;;;;5053630;28;20394;-77
2022/06/29 03:47:58;;;;;;;2.95;0.10;;;14.40;99.90;;;;;;5054445;28;20025;-77
2022/06/29 03:50:23;;;;;;;2.22;0.10;;;14.40;99.90;;;;;;5053835;28;20017;-77
2022/06/29 03:52:49;;;;;;;3.95;0.10;;;14.70;99.90;;;;;;5054325;28;20013;-77
2022/06/29 03:55:15;;;;;;;0.93;0.10;;;14.60;99.90;;;;;;5054687;28;20021;-77
2022/06/29 03:57:41;;;;;;;1.23;0.10;;;14.40;99.90;;;;;;5054322;28;20032;-76
2022/06/29 04:00:07;;;;;;;1.50;0.00;;;14.40;99.90;;;;;;5054275;28;20486;-77
2022/06/29 04:02:33;;;;;;;3.83;0.15;;;14.50;99.90;;;;;;5055016;28;20017;-78
2022/06/29 04:04:58;;;;;;;1.75;0.60;;;14.50;99.90;;;;;;5055765;28;20032;-78
2022/06/29 04:07:24;;;;;;;1.25;0.10;;;14.70;99.90;;;;;;5055220;28;20048;-78
2022/06/29 04:09:50;;;;;;;0.43;0.25;;;14.60;99.90;;;;;;5054602;28;20028;-77
2022/06/29 04:12:15;;;;;;;0.80;0.20;;;14.60;99.90;;;;;;5052833;28;20032;-77
2022/06/29 04:14:41;;;;;;;2.70;0.10;;;14.60;99.90;;;;;;5052948;28;20523;-77
2022/06/29 04:17:07;;;;;;;2.38;0.60;;;14.70;99.90;;;;;;5053949;28;20075;-77
2022/06/29 04:19:32;;;;;;;0.57;0.17;;;14.80;99.90;;;;;;5054279;28;20067;-77
2022/06/29 04:21:58;;;;;;;0.88;0.25;;;14.80;99.90;;;;;;5054108;28;20021;-77
2022/06/29 04:24:23;;;;;;;0.20;0.10;;;14.90;99.90;;;;;;5051927;28;20356;-77
2022/06/29 04:26:49;;;;;;;2.40;0.20;;;14.90;99.90;;;;;;5033772;28;20034;-76
2022/06/29 04:29:15;;;;;;;4.35;0.32;;;15.10;99.90;;;;;;5033810;28;20022;-77
2022/06/29 04:31:40;;;;;;;1.05;0.10;;;15.00;99.90;;;;;;5034014;28;20027;-78
2022/06/29 04:34:06;;;;;;;1.52;0.43;;;15.20;99.90;;;;;;5016372;28;20022;-78
2022/06/29 04:36:32;;;;;;;2.55;0.50;;;15.20;99.90;;;;;;5034154;28;20047;-78
2022/06/29 04:38:57;;;;;;;1.45;0.35;;;15.30;99.90;;;;;;5016311;28;20021;-77
2022/06/29 04:41:23;;;;;;;1.38;0.20;;;15.40;99.90;;;;;;5034112;28;20075;-77
2022/06/29 04:43:49;;;;;;;0.68;0.10;;;15.50;99.90;;;;;;5034093;28;20440;-77
2022/06/29 04:46:21;;;;;;;0.20;0.20;;;15.70;99.90;;;;;;5033995;28;20108;-77
2022/06/29 04:48:59;;;;;;;3.00;0.28;;;15.60;99.90;;;;;;5016106;28;20390;-77
2022/06/29 04:51:26;;;;;;;;;;;15.80;99.90;;;;;;5034311;28;20064;-77
2022/06/29 04:53:56;;;;;;;1.95;0.20;;;15.90;99.90;;;;;;5016118;28;19911;-75
2022/06/29 04:56:30;;;;;;;0.52;0.17;;;16.00;99.90;;;;;;5033513;28;20049;-75
2022/06/29 04:58:57;;;;;;;1.35;0.20;;;16.10;99.90;;;;;;5033412;28;20032;-74
2022/06/29 05:01:24;;;;;;;1.20;0.20;;;16.10;99.90;;;;;;5033542;28;20087;-74
2022/06/29 05:03:51;;;;;;;2.25;0.30;;;16.20;99.90;;;;;;5015622;28;20053;-74
2022/06/29 05:06:17;;;;;;;1.77;0.45;;;16.30;99.90;;;;;;5033495;28;20026;-77
2022/06/29 05:08:43;;;;;;;0.98;0.22;;;16.40;99.90;;;;;;5033205;28;20044;-74
2022/06/29 05:11:09;;;;;;;1.63;0.60;;;16.60;99.90;;;;;;5015479;28;20014;-74
2022/06/29 05:13:35;;;;;;;1.38;0.30;;;16.50;99.90;;;;;;5033509;28;20022;-74
2022/06/29 05:16:01;;;;;;;2.40;0.30;;;16.60;99.90;;;;;;5033283;28;20383;-75
2022/06/29 05:18:28;;;;;;;0.40;0.20;;;17.40;99.90;;;;;;5033479;28;20104;-76
2022/06/29 05:20:54;;;;;;;0.80;0.25;;;16.90;99.90;;;;;;5034012;28;20348;-75
2022/06/29 05:23:19;;;;;;;1.38;0.52;;;16.90;99.90;;;;;;5033569;28;20021;-76
2022/06/29 05:25:45;;;;;;;2.42;0.60;;;17.00;99.90;;;;;;5033061;28;20095;-76
2022/06/29 05:28:11;;;;;;;3.90;0.30;;;17.10;99.90;;;;;;5033275;28;20116;-76
2022/06/29 05:30:37;;;;;;;4.97;0.50;;;17.20;99.90;;;;;;5015163;28;20029;-76
2022/06/29 05:33:03;;;;;;;5.40;0.50;;;17.30;99.90;;;;;;5015215;28;20014;-75
2022/06/29 05:35:33;;;;;;;0.80;0.35;;;17.50;99.90;;;;;;5033310;28;20466;-75
2022/06/29 05:37:59;;;;;;;1.13;0.50;;;17.60;99.90;;;;;;5015811;28;20501;-76
2022/06/29 05:40:25;;;;;;;1.75;0.40;;;17.70;99.90;;;;;;5033161;28;20479;-75
2022/06/29 05:42:51;;;;;;;3.95;0.60;;;17.80;99.90;;;;;;5015838;28;20160;-76
2022/06/29 05:45:16;;;;;;;1.55;0.38;;;17.90;99.90;;;;;;5015932;28;20368;-76
2022/06/29 05:47:42;;;;;;;2.95;0.70;;;18.00;99.90;;;;;;5015364;28;20036;-76
2022/06/29 05:50:10;;;;;;;1.40;0.60;;;18.10;99.90;;;;;;5016278;28;20467;-74
2022/06/29 05:52:36;;;;;;;2.08;0.20;;;18.10;99.90;;;;;;5015308;28;20501;-74
2022/06/29 05:55:03;;;;;;;1.83;0.50;;;18.20;99.90;;;;;;5033051;28;20018;-74
2022/06/29 05:57:28;;;;;;;0.80;0.32;;;18.30;99.90;;;;;;5033225;28;20033;-75
2022/06/29 05:59:54;;;;;;;2.45;0.45;;;18.40;99.90;;;;;;5033116;28;20037;-75
2022/06/29 06:02:20;;;;;;;1.13;0.40;;;18.40;99.90;;;;;;5032912;28;20025;-75
2022/06/29 06:04:45;;;;;;;1.08;0.30;;;18.90;99.90;;;;;;5017034;28;20028;-75
2022/06/29 06:07:11;;;;;;;1.65;0.30;;;18.70;99.90;;;;;;5019127;28;20108;-74
2022/06/29 06:09:36;;;;;;;1.58;0.52;;;18.80;99.90;;;;;;5036889;28;20014;-75
2022/06/29 06:12:02;;;;;;;3.38;0.32;;;18.90;99.90;;;;;;5036994;28;20490;-75
2022/06/29 06:14:28;;;;;;;1.35;0.20;;;19.00;99.90;;;;;;5036811;28;20039;-74
2022/06/29 06:16:53;;;;;;;2.63;0.40;;;19.20;99.90;;;;;;5036783;28;20022;-75
2022/06/29 06:19:19;;;;;;;4.65;0.30;;;19.30;99.90;;;;;;5018793;28;20386;-75
2022/06/29 06:21:44;;;;;;;1.88;1.15;;;19.40;99.90;;;;;;5019190;28;20119;-77
2022/06/29 06:24:10;;;;;;;2.38;0.45;;;19.50;99.90;;;;;;5018499;28;20036;-75
2022/06/29 06:26:36;;;;;;;1.70;0.57;;;19.60;99.90;;;;;;5185264;23;20048;-77
2022/06/29 06:29:01;;;;;;;0.95;0.20;;;19.60;99.90;;;;;;5095157;28;20062;-77
2022/06/29 06:31:27;;;;;;;3.30;0.20;;;19.80;99.90;;;;;;5077504;28;20020;-77
2022/06/29 06:33:53;;;;;;;0.98;0.68;;;20.00;99.90;;;;;;5095622;28;20016;-76
2022/06/29 06:36:19;;;;;;;2.10;0.50;;;20.00;99.90;;;;;;5077773;28;20433;-77
2022/06/29 06:38:45;;;;;;;3.75;0.75;;;20.20;99.90;;;;;;5095802;28;20039;-77
2022/06/29 06:41:22;;;;;;;1.77;0.30;;;20.20;99.90;;;;;;5077777;28;20107;-77
2022/06/29 06:43:53;;;;;;;3.00;0.28;;;20.40;99.90;;;;;;5078599;28;20027;-77
2022/06/29 06:46:19;;;;;;;1.10;0.30;;;20.50;99.90;;;;;;5096374;28;20481;-77
2022/06/29 06:48:45;;;;;;;5.20;0.17;;;20.60;99.90;;;;;;5096422;28;20038;-77
2022/06/29 06:51:11;;;;;;;1.65;0.20;;;20.90;99.90;;;;;;5096380;28;20022;-77
2022/06/29 06:53:37;;;;;;;1.23;0.20;;;20.80;99.90;;;;;;5078242;28;20012;-77
2022/06/29 06:56:03;;;;;;;2.00;0.28;;;20.90;99.90;;;;;;5110661;22;20043;-74
2022/06/29 06:58:29;;;;;;;4.53;0.75;;;21.00;99.90;;;;;;5096017;28;20047;-75
2022/06/29 07:00:54;;;;;;;3.58;0.28;;;21.10;99.90;;;;;;5077991;28;20109;-76
2022/06/29 07:03:20;;;;;;;1.85;0.32;;;21.20;99.90;;;;;;5077743;28;20026;-74
2022/06/29 07:05:45;;;;;;;1.95;0.10;;;21.30;99.90;;;;;;5095887;28;20381;-74
2022/06/29 07:08:11;;;;;;;1.30;0.22;;;21.40;99.90;;;;;;5077346;28;20034;-74
2022/06/29 07:10:36;;;;;;;1.27;0.22;;;21.50;99.90;;;;;;5077350;28;20135;-74
2022/06/29 07:13:02;;;;;;;0.47;0.17;;;21.60;99.90;;;;;;5095712;28;20036;-74
2022/06/29 07:15:27;;;;;;;0.70;0.28;;;21.70;99.90;;;;;;5076648;28;20020;-74
2022/06/29 07:17:54;;;;;;;0.60;0.20;;;21.80;99.90;;;;;;5095411;28;20069;-75
2022/06/29 07:20:19;;;;;;;2.97;0.57;;;21.90;99.90;;;;;;5095527;28;20065;-75
2022/06/29 07:22:46;;;;;;;3.60;0.38;;;22.00;99.90;;;;;;5095477;28;20028;-76
2022/06/29 07:25:11;;;;;;;1.88;0.50;;;22.10;99.90;;;;;;5077185;28;20052;-76
2022/06/29 07:27:37;;;;;;;2.28;0.57;;;22.30;99.90;;;;;;5095628;28;20082;-76
2022/06/29 07:30:04;;;;;;;2.15;0.38;;;22.40;99.90;;;;;;5077628;28;20024;-76
2022/06/29 07:32:30;;;;;;;3.47;0.08;;;22.50;99.90;;;;;;5077402;28;20016;-76
2022/06/29 07:34:56;;;;;;;2.13;0.25;;;22.50;99.90;;;;;;5095542;28;20012;-75
2022/06/29 07:37:22;;;;;;;2.25;0.05;;;22.60;99.90;;;;;;5077251;28;20492;-76
2022/06/29 07:39:47;;;;;;;0.95;0.30;;;22.80;99.90;;;;;;5095564;28;20103;-75
2022/06/29 07:42:13;;;;;;;2.13;0.20;;;22.90;99.90;;;;;;5095502;28;20026;-75
2022/06/29 07:44:38;;;;;;;3.15;0.60;;;23.00;98.80;;;;;;5094938;28;20389;-75
2022/06/29 07:47:04;;;;;;;1.58;0.10;;;23.10;99.70;;;;;;5076855;28;20016;-75
2022/06/29 07:49:30;;;;;;;0.52;0.03;;;23.20;98.90;;;;;;5095286;28;20036;-75
2022/06/29 07:51:56;;;;;;;0.13;0.00;;;23.20;98.60;;;;;;5094905;28;20012;-76
2022/06/29 07:54:22;;;;;;;2.95;0.10;;;23.30;97.60;;;;;;5095008;28;20104;-76
2022/06/29 07:56:48;;;;;;;0.52;0.38;;;23.40;98.00;;;;;;5094659;28;20065;-76
2022/06/29 07:59:13;;;;;;;0.55;0.13;;;23.50;97.80;;;;;;5094737;28;20024;-75
2022/06/29 08:01:39;;;;;;;1.33;0.10;;;23.50;97.10;;;;;;5095012;28;20376;-75
2022/06/29 08:04:04;;;;;;;1.63;0.10;;;23.60;96.40;;;;;;5095126;28;20016;-75
2022/06/29 08:06:30;;;;;;;4.82;0.20;;;23.80;95.60;;;;;;5094630;28;20027;-75
2022/06/29 08:08:56;;;;;;;0.25;0.00;;;23.90;95.00;;;;;;5094750;28;20024;-75
2022/06/29 08:11:21;;;;;;;3.72;0.00;;;24.20;94.60;;;;;;5076563;28;20024;-75
2022/06/29 08:13:47;;;;;;;0.98;0.13;;;24.10;93.40;;;;;;5094873;28;20056;-75
2022/06/29 08:16:13;;;;;;;0.82;0.00;;;24.20;93.90;;;;;;5076139;28;20074;-76
2022/06/29 08:18:38;;;;;;;0.90;0.20;;;24.30;92.00;;;;;;5076252;28;20137;-76
2022/06/29 08:21:04;;;;;;;6.47;0.45;;;24.40;91.30;;;;;;5094408;28;20030;-76
2022/06/29 08:23:30;;;;;;;1.50;0.00;;;24.40;91.90;;;;;;5076125;28;20020;-76
2022/06/29 08:25:56;;;;;;;2.00;0.28;;;24.50;91.80;;;;;;5094419;28;20085;-76
2022/06/29 08:28:25;;;;;;;4.88;0.00;;;24.70;92.10;;;;;;5093867;28;20477;-75
2022/06/29 08:30:50;;;;;;;0.70;0.00;;;24.70;92.20;;;;;;5094436;28;20016;-75
2022/06/29 08:33:16;;;;;;;0.52;0.10;;;24.80;91.30;;;;;;5076190;28;20016;-75
2022/06/29 08:35:42;;;;;;;0.63;0.13;;;24.90;90.70;;;;;;5094042;28;20043;-76
2022/06/29 08:38:08;;;;;;;3.53;0.38;;;25.00;91.00;;;;;;5094094;28;20028;-76
2022/06/29 08:40:48;;;;;;;1.92;0.15;;;25.10;89.30;;;;;;5094490;28;20063;-76
2022/06/29 08:43:15;;;;;;;0.80;0.00;;;25.10;89.60;;;;;;5094869;28;20027;-76
2022/06/29 08:45:44;;;;;;;1.43;0.00;;;25.20;88.40;;;;;;5094070;28;20028;-76
2022/06/29 08:48:10;;;;;;;;;;;25.30;85.30;;;;;;5094602;28;20676;-76
2022/06/29 08:50:41;;;;;;;2.53;0.10;;;25.40;86.70;;;;;;5094525;28;19904;-76
2022/06/29 08:53:08;;;;;;;0.52;0.10;;;25.50;85.60;;;;;;5076001;28;20107;-76
2022/06/29 08:55:40;;;;;;;3.88;0.13;;;25.60;85.00;;;;;;5093887;28;20031;-75
2022/06/29 08:58:06;;;;;;;1.67;0.20;;;25.70;84.50;;;;;;5075754;28;20024;-76
2022/06/29 09:00:36;;;;;;;0.75;0.20;;;25.80;80.50;;;;;;5093805;28;20031;-76
2022/06/29 09:03:04;;;;;;;1.27;0.30;;;25.80;80.00;;;;;;5075697;28;20160;-76
2022/06/29 09:05:30;;;;;;;2.03;0.10;;;25.70;77.70;;;;;;5094211;28;20484;-76
2022/06/29 09:07:55;;;;;;;0.13;0.00;;;25.70;81.10;;;;;;5075782;28;20116;-76
2022/06/29 09:10:23;;;;;;;0.57;0.00;;;25.70;83.60;;;;;;5075875;28;20024;-76
2022/06/29 09:12:50;;;;;;;0.20;0.10;;;25.80;81.40;;;;;;5093652;28;20016;-76
2022/06/29 09:15:16;;;;;;;1.30;0.00;;;25.90;76.30;;;;;;5075578;28;20020;-76
2022/06/29 09:17:42;;;;;;;0.57;0.00;;;26.00;76.50;;;;;;5093651;28;20442;-76
2022/06/29 09:20:10;;;;;;;0.57;0.00;;;26.20;74.90;;;;;;5075602;28;20073;-79
2022/06/29 09:22:41;;;;;;;0.90;0.00;;;26.20;73.30;;;;;;5093640;28;20024;-76
2022/06/29 09:25:20;;;;;;;1.15;0.00;;;26.10;72.30;;;;;;5075464;28;20548;-76
2022/06/29 09:27:46;;;;;;;3.75;0.43;;;26.20;74.50;;;;;;5093415;28;20029;-76
2022/06/29 09:30:25;;;;;;;1.10;0.00;;;26.30;74.00;;;;;;5093569;28;20099;-76
2022/06/29 09:33:06;;;;;;;0.88;0.00;;;27.10;76.10;;;;;;5075648;28;20023;-76
2022/06/29 09:35:33;;;;;;;1.67;0.10;;;26.50;74.30;;;;;;5093684;28;20023;-76
2022/06/29 09:38:22;;;;;;;0.40;0.00;;;26.60;75.10;;;;;;5075294;28;20028;-76
2022/06/29 09:41:05;;;;;;;0.85;0.20;;;26.70;72.70;;;;;;5097211;28;20392;-76
2022/06/29 09:43:32;;;;;;;3.35;0.20;;;26.80;69.30;;;;;;5098194;28;20104;-77
2022/06/29 09:46:00;;;;;;;2.13;0.00;;;26.80;70.20;;;;;;5099100;28;20025;-77
2022/06/29 09:48:26;;;;;;;0.00;0.00;;;27.00;69.00;;;;;;5098613;28;20023;-77
2022/06/29 09:50:54;;;;;;;0.30;0.00;;;27.10;69.20;;;;;;5080453;28;20016;-77
2022/06/29 09:53:39;;;;;;;0.38;0.00;;;27.20;69.00;;;;;;5081519;28;20017;-77
2022/06/29 09:56:07;;;;;;;1.20;0.00;;;27.30;67.30;;;;;;5081511;28;20064;-77
2022/06/29 09:58:55;;;;;;;0.38;0.10;;;27.40;69.60;;;;;;5082176;28;20028;-78
2022/06/29 10:04:05;;;;;;;1.95;0.00;;;27.70;68.00;;;;;;5097412;28;20119;-75
2022/06/29 10:06:31;;;;;;;1.38;0.10;;;27.80;66.10;;;;;;5079316;28;20047;-75
2022/06/29 10:08:58;;;;;;;2.50;0.00;;;27.70;62.20;;;;;;5078955;28;20020;-75
2022/06/29 10:14:43;;;;;;;0.45;0.10;;;27.90;65.10;;;;;;5097087;28;20085;-75
2022/06/29 10:17:50;;;;;;;0.65;0.28;;;27.80;61.70;;;;;;5097000;28;20471;-74
2022/06/29 10:20:33;;;;;;;1.20;0.00;;;27.80;64.70;;;;;;4998854;28;20037;-74
2022/06/29 10:22:58;;;;;;;0.20;0.00;;;28.00;65.20;;;;;;5090087;28;20262;-75
2022/06/29 10:25:27;;;;;;;2.35;0.10;;;28.20;63.20;;;;;;5097707;28;20021;-75
2022/06/29 10:28:08;;;;;;;0.82;0.30;;;28.20;63.60;;;;;;5078871;28;20032;-74
2022/06/29 10:30:34;;;;;;;1.65;0.00;;;28.50;61.90;;;;;;5079133;28;20092;-75
2022/06/29 10:33:35;;;;;;;0.52;0.00;;;28.60;61.30;;;;;;5096799;28;20026;-75
2022/06/29 10:36:08;;;;;;;1.65;0.00;;;28.70;59.50;;;;;;5096483;28;20127;-74
2022/06/29 10:38:58;;;;;;;0.40;0.00;;;28.80;61.10;;;;;;5078380;28;20028;-74
2022/06/29 10:44:08;;;;;;;0.10;0.00;;;29.00;57.10;;;;;;5097829;28;20385;-75
2022/06/29 10:46:56;;;;;;;0.43;0.28;;;29.10;59.00;;;;;;5097185;28;20024;-75
2022/06/29 10:49:23;;;;;;;1.00;0.00;;;29.30;57.60;;;;;;5096543;28;20044;-75
2022/06/29 10:51:49;;;;;;;1.98;0.00;;;29.40;56.30;;;;;;5096199;28;20024;-75
2022/06/29 10:54:25;;;;;;;1.00;0.35;;;29.40;55.60;;;;;;5096851;28;20146;-75
2022/06/29 10:56:51;;;;;;;0.80;0.00;;;29.10;54.80;;;;;;5078074;28;20043;-75
2022/06/29 10:59:36;;;;;;;2.22;0.00;;;28.80;54.40;;;;;;5078662;28;20384;-75
2022/06/29 11:02:20;;;;;;;4.03;0.10;;;28.60;56.80;;;;;;5096234;28;20031;-75
2022/06/29 11:04:46;;;;;;;4.18;0.10;;;28.50;56.40;;;;;;5096844;28;20170;-75
2022/06/29 11:12:54;;;;;;;0.75;0.00;;;28.90;55.90;;;;;;5097544;28;20030;-75
2022/06/29 11:15:41;;;;;;;0.35;0.10;;;29.40;56.40;;;;;;5095933;28;20051;-76
2022/06/29 11:18:12;;;;;;;0.30;0.00;;;29.60;54.40;;;;;;5096486;28;20477;-75
2022/06/29 11:20:38;;;;;;;0.63;0.00;;;29.80;54.20;;;;;;5077993;28;20451;-75
2022/06/29 11:23:10;;;;;;;1.10;0.00;;;29.90;52.80;;;;;;5077566;28;20035;-75
2022/06/29 11:25:37;;;;;;;1.33;0.00;;;30.20;54.00;;;;;;5077636;28;20107;-75
2022/06/29 11:28:03;;;;;;;0.05;0.00;;;30.50;53.10;;;;;;5096012;28;20065;-75
2022/06/29 11:30:29;;;;;;;0.28;0.00;;;30.90;52.10;;;;;;5077723;28;20045;-75
2022/06/29 11:32:55;;;;;;;1.15;0.00;;;31.00;51.50;;;;;;5095845;28;20013;-75
2022/06/29 11:35:22;;;;;;;1.17;0.08;;;30.80;52.00;;;;;;5095652;28;20028;-75
2022/06/29 11:37:50;;;;;;;0.57;0.00;;;30.50;52.30;;;;;;5095857;28;20027;-75
2022/06/29 11:40:19;;;;;;;0.28;0.00;;;30.40;52.40;;;;;;5096279;28;20024;-75
2022/06/29 11:45:48;;;;;;;0.05;0.05;;;30.20;52.60;;;;;;5097427;28;20115;-75
2022/06/29 11:48:28;;;;;;;0.00;0.00;;;30.30;52.80;;;;;;5096759;28;20080;-76
2022/06/29 11:50:58;;;;;;;0.88;0.00;;;30.30;53.40;;;;;;5096267;28;20080;-76
2022/06/29 11:53:44;;;;;;;1.10;0.00;;;30.40;52.10;;;;;;5096175;28;20020;-76
2022/06/29 11:56:14;;;;;;;0.45;0.00;;;30.70;52.10;;;;;;5095819;28;20031;-75
2022/06/29 11:58:51;;;;;;;0.60;0.10;;;31.20;49.90;;;;;;5077660;28;20070;-75
2022/06/29 12:01:19;;;;;;;0.35;0.00;;;31.50;51.30;;;;;;5096011;28;20465;-75
2022/06/29 12:03:56;;;;;;;1.17;0.10;;;31.80;49.60;;;;;;5077326;28;20086;-75
2022/06/29 12:06:24;;;;;;;0.05;0.00;;;32.10;47.60;;;;;;5096944;28;20020;-75
2022/06/29 12:08:51;;;;;;;;;;;32.00;48.60;;;;;;5096499;28;20027;-75
2022/06/29 12:11:16;;;;;;;0.90;0.00;;;31.80;48.00;;;;;;5095334;28;19908;-74
2022/06/29 12:13:42;;;;;;;0.00;0.00;;;31.60;48.00;;;;;;5095199;28;20149;-75
2022/06/29 12:16:09;;;;;;;0.85;0.00;;;31.30;47.00;;;;;;5076999;28;20020;-75
2022/06/29 12:18:35;;;;;;;0.13;0.10;;;31.40;49.90;;;;;;5095195;28;20071;-76
2022/06/29 12:21:00;;;;;;;0.15;0.00;;;31.80;49.40;;;;;;5095064;28;20020;-75
2022/06/29 12:23:28;;;;;;;0.45;0.13;;;32.40;51.00;;;;;;5077049;28;20035;-74
2022/06/29 12:26:01;;;;;;;0.00;0.00;;;32.60;48.10;;;;;;5095608;28;20028;-77
2022/06/29 12:28:27;;;;;;;0.75;0.00;;;32.40;47.20;;;;;;5094999;28;20028;-74
2022/06/29 12:30:53;;;;;;;0.85;0.00;;;32.20;48.60;;;;;;5076897;28;20077;-74
2022/06/29 12:33:20;;;;;;;1.38;0.10;;;31.90;48.30;;;;;;5094937;28;20446;-74
2022/06/29 12:35:46;;;;;;;0.35;0.00;;;31.50;48.00;;;;;;5076666;28;20016;-74
2022/06/29 12:38:12;;;;;;;0.30;0.00;;;31.20;48.30;;;;;;5094851;28;20023;-75
2022/06/29 12:40:38;;;;;;;0.55;0.00;;;31.40;48.30;;;;;;5076548;28;20024;-75
2022/06/29 12:43:04;;;;;;;1.73;0.00;;;31.30;48.10;;;;;;5094426;28;20032;-75
2022/06/29 12:45:30;;;;;;;4.32;0.00;;;31.10;48.40;;;;;;5076367;28;20107;-74
2022/06/29 12:47:55;;;;;;;0.50;0.00;;;31.10;49.60;;;;;;5094164;28;20012;-74
2022/06/29 12:50:21;;;;;;;0.98;0.40;;;30.80;49.70;;;;;;5076414;28;20027;-74
2022/06/29 12:52:51;;;;;;;1.13;0.00;;;30.60;49.80;;;;;;5076324;28;20020;-75
2022/06/29 12:55:18;;;;;;;1.08;0.00;;;30.30;49.40;;;;;;5094023;28;20024;-75
2022/06/29 12:57:44;;;;;;;0.00;0.00;;;30.10;52.60;;;;;;5076033;28;20047;-75
2022/06/29 13:00:12;;;;;;;0.10;0.00;;;29.80;51.20;;;;;;5094346;28;20028;-75
2022/06/29 13:02:38;;;;;;;0.75;0.00;;;29.60;52.00;;;;;;5094849;28;20016;-75
2022/06/29 13:05:05;;;;;;;1.13;0.00;;;29.40;52.70;;;;;;5094977;28;20016;-75
2022/06/29 13:07:30;;;;;;;1.80;0.00;;;29.40;53.30;;;;;;5094078;28;20115;-75
2022/06/29 13:09:58;;;;;;;0.52;0.00;;;29.60;52.70;;;;;;5094549;28;20095;-74